Terminal Aerodrome Forecast
Issued by NWS Shreveport, LA

Home | Current Version | Previous Version | Text Only | Print | Product List | Glossary On
Versions: 1 2 3 4 5 6 7 8 9 10 11 12 13 14
330
FTUS44 KSHV 132342
TAFGGG
TAF
KGGG 132342Z 1400/1424 13008KT P6SM FEW040 BKN060
      TEMPO 1400/1404 BKN040
     FM140400 14010KT P6SM BKN040
     FM141200 16008KT 5SM BR OVC025
     FM141600 17012KT P6SM OVC020=

USA.gov is the U.S. government's official web portal to all federal, state and local government web resources and services.